Time,TemperatureF,DewpointF,PressureIn,WindDirection,WindDirectionDegrees,WindSpeedMPH,WindSpeedGustMPH,Humidity,HourlyPrecipIn,Conditions,Clouds,dailyrainin,SolarRadiationWatts/m^2,SoftwareType,DateUTC
2013-07-05 00:00:00,70.8,69.3,30.20,NNE,27,0.0,0.0,95,0.00,,---,0.05,0.00,VWS V14.01,2013-07-05 04:00:00,
2013-07-05 00:26:00,70.6,69.1,30.20,NNE,27,0.0,1.0,95,0.00,,---,0.00,0.00,VWS V14.01,2013-07-05 04:26:00,
2013-07-05 00:30:00,70.6,69.1,30.20,NNE,27,0.0,1.0,95,0.00,,---,0.00,0.00,VWS V14.01,2013-07-05 04:30:00,
2013-07-05 00:56:00,70.3,68.8,30.20,NNE,27,0.0,1.0,95,0.00,,---,0.00,0.00,VWS V14.01,2013-07-05 04:56:00,
2013-07-05 01:00:00,70.3,68.8,30.20,NNE,27,0.0,1.0,95,0.00,,---,0.00,0.00,VWS V14.01,2013-07-05 05:00:00,
2013-07-05 01:26:00,70.0,68.5,30.20,NNE,27,0.0,0.0,95,0.00,,---,0.00,0.00,VWS V14.01,2013-07-05 05:26:00,
2013-07-05 01:30:00,70.0,68.5,30.20,NNE,27,0.0,0.0,95,0.00,,---,0.00,0.00,VWS V14.01,2013-07-05 05:30:00,
2013-07-05 01:56:00,69.9,68.4,30.20,NNE,27,0.0,0.0,95,0.00,,---,0.00,0.00,VWS V14.01,2013-07-05 05:56:00,
2013-07-05 02:00:00,69.9,68.4,30.20,NNE,27,0.0,0.0,95,0.00,,---,0.00,0.00,VWS V14.01,2013-07-05 06:00:00,
2013-07-05 02:26:00,69.8,68.6,30.19,NNE,27,0.0,0.0,96,0.00,,---,0.00,0.00,VWS V14.01,2013-07-05 06:26:00,
2013-07-05 02:30:00,69.8,68.6,30.19,NNE,27,0.0,0.0,96,0.00,,---,0.00,0.00,VWS V14.01,2013-07-05 06:30:00,
2013-07-05 02:56:00,69.9,68.4,30.20,NNE,27,0.0,1.0,95,0.00,,---,0.00,0.00,VWS V14.01,2013-07-05 06:56:00,
2013-07-05 03:00:00,69.9,68.4,30.20,NNE,27,0.0,1.0,95,0.00,,---,0.00,0.00,VWS V14.01,2013-07-05 07:00:00,
2013-07-05 03:26:00,69.9,68.4,30.19,NNE,27,0.0,1.0,95,0.00,,---,0.00,0.00,VWS V14.01,2013-07-05 07:26:00,
2013-07-05 03:30:00,69.9,68.4,30.19,NNE,27,0.0,1.0,95,0.00,,---,0.00,0.00,VWS V14.01,2013-07-05 07:30:00,
2013-07-05 03:56:00,69.6,68.4,30.19,NNE,27,0.0,0.0,96,0.00,,---,0.00,0.00,VWS V14.01,2013-07-05 07:56:00,
2013-07-05 04:00:00,69.6,68.4,30.19,NNE,27,0.0,0.0,96,0.00,,---,0.00,0.00,VWS V14.01,2013-07-05 08:00:00,
2013-07-05 04:26:00,69.7,68.5,30.18,NNE,27,0.0,1.0,96,0.00,,---,0.00,0.00,VWS V14.01,2013-07-05 08:26:00,
2013-07-05 04:30:00,69.7,68.5,30.18,NNE,27,0.0,1.0,96,0.00,,---,0.00,0.00,VWS V14.01,2013-07-05 08:30:00,
2013-07-05 04:56:00,69.2,68.0,30.19,NNE,27,0.0,1.0,96,0.00,,---,0.00,0.00,VWS V14.01,2013-07-05 08:56:00,
2013-07-05 05:00:00,69.2,68.0,30.19,NNE,27,0.0,1.0,96,0.00,,---,0.00,0.00,VWS V14.01,2013-07-05 09:00:00,
2013-07-05 05:26:00,68.9,67.7,30.20,NNE,27,0.0,1.0,96,0.00,,---,0.00,0.00,VWS V14.01,2013-07-05 09:26:00,
2013-07-05 05:30:00,68.9,67.7,30.20,NNE,27,0.0,1.0,96,0.00,,---,0.00,0.00,VWS V14.01,2013-07-05 09:30:00,
2013-07-05 05:56:00,69.2,68.0,30.21,NNE,27,0.0,1.0,96,0.00,,---,0.00,7.00,VWS V14.01,2013-07-05 09:56:00,
2013-07-05 06:00:00,69.2,68.0,30.21,NNE,27,0.0,1.0,96,0.00,,---,0.00,7.00,VWS V14.01,2013-07-05 10:00:00,
2013-07-05 06:26:00,69.5,68.3,30.20,NNE,27,0.0,1.0,96,0.00,,---,0.00,49.00,VWS V14.01,2013-07-05 10:26:00,
2013-07-05 06:30:00,69.5,68.3,30.20,NNE,27,0.0,1.0,96,0.00,,---,0.00,49.00,VWS V14.01,2013-07-05 10:30:00,
2013-07-05 06:56:00,70.6,69.4,30.20,NNE,27,0.0,1.0,96,0.00,,---,0.00,63.00,VWS V14.01,2013-07-05 10:56:00,
2013-07-05 07:00:00,70.6,69.4,30.20,NNE,27,0.0,1.0,96,0.00,,---,0.00,63.00,VWS V14.01,2013-07-05 11:00:00,
2013-07-05 07:26:00,72.6,70.2,30.20,NNE,27,0.0,1.0,92,0.00,,---,0.00,74.00,VWS V14.01,2013-07-05 11:26:00,
2013-07-05 07:30:00,72.6,70.2,30.20,NNE,27,0.0,1.0,92,0.00,,---,0.00,74.00,VWS V14.01,2013-07-05 11:30:00,
2013-07-05 07:56:00,75.5,71.0,30.20,SSW,208,0.0,6.0,86,0.00,,---,0.00,149.00,VWS V14.01,2013-07-05 11:56:00,
2013-07-05 08:00:00,75.5,71.0,30.20,SSW,208,0.0,6.0,86,0.00,,---,0.00,149.00,VWS V14.01,2013-07-05 12:00:00,
2013-07-05 08:26:00,75.8,71.3,30.20,WSW,244,0.0,4.0,86,0.00,,---,0.00,116.00,VWS V14.01,2013-07-05 12:26:00,
2013-07-05 08:30:00,75.8,71.3,30.20,WSW,244,0.0,4.0,86,0.00,,---,0.00,116.00,VWS V14.01,2013-07-05 12:30:00,
2013-07-05 08:56:00,79.4,72.7,30.19,SE,128,5.0,5.0,80,0.00,,---,0.00,223.00,VWS V14.01,2013-07-05 12:56:00,
2013-07-05 09:00:00,79.4,72.7,30.19,SE,128,5.0,5.0,80,0.00,,---,0.00,223.00,VWS V14.01,2013-07-05 13:00:00,
2013-07-05 09:26:00,79.6,72.1,30.18,SE,138,7.0,7.0,78,0.00,,---,0.00,364.00,VWS V14.01,2013-07-05 13:26:00,
2013-07-05 09:30:00,79.6,72.1,30.18,SE,138,7.0,7.0,78,0.00,,---,0.00,364.00,VWS V14.01,2013-07-05 13:30:00,
2013-07-05 09:56:00,81.3,72.2,30.18,SSW,194,3.0,9.0,74,0.00,,---,0.00,417.00,VWS V14.01,2013-07-05 13:56:00,
2013-07-05 10:00:00,81.3,72.2,30.18,SSW,194,3.0,9.0,74,0.00,,---,0.00,417.00,VWS V14.01,2013-07-05 14:00:00,
2013-07-05 10:26:00,81.1,71.6,30.18,SSE,161,1.0,9.0,73,0.00,,---,0.00,406.00,VWS V14.01,2013-07-05 14:26:00,
2013-07-05 10:30:00,81.1,71.6,30.18,SSE,161,1.0,9.0,73,0.00,,---,0.00,406.00,VWS V14.01,2013-07-05 14:30:00,
2013-07-05 10:56:00,82.7,72.3,30.18,SE,130,0.0,7.0,71,0.00,,---,0.00,464.00,VWS V14.01,2013-07-05 14:56:00,
2013-07-05 11:00:00,82.7,72.3,30.18,SE,130,0.0,7.0,71,0.00,,---,0.00,464.00,VWS V14.01,2013-07-05 15:00:00,
2013-07-05 11:26:00,83.7,72.9,30.18,South,170,0.0,8.0,70,0.00,,---,0.00,279.00,VWS V14.01,2013-07-05 15:26:00,
2013-07-05 11:30:00,83.7,72.9,30.18,South,170,0.0,8.0,70,0.00,,---,0.00,279.00,VWS V14.01,2013-07-05 15:30:00,
2013-07-05 11:56:00,84.1,73.7,30.17,South,171,4.0,7.0,71,0.00,,---,0.00,582.00,VWS V14.01,2013-07-05 15:56:00,
2013-07-05 12:00:00,84.1,73.7,30.17,South,171,4.0,7.0,71,0.00,,---,0.00,582.00,VWS V14.01,2013-07-05 16:00:00,
2013-07-05 12:26:00,85.0,72.8,30.16,SSW,193,3.0,13.0,67,0.00,,---,0.00,1009.00,VWS V14.01,2013-07-05 16:26:00,
2013-07-05 12:30:00,85.0,72.8,30.16,SSW,193,3.0,13.0,67,0.00,,---,0.00,1009.00,VWS V14.01,2013-07-05 16:30:00,
2013-07-05 12:56:00,85.1,72.9,30.16,WSW,248,6.0,16.0,67,0.00,,---,0.00,531.00,VWS V14.01,2013-07-05 16:56:00,
2013-07-05 13:00:00,85.1,72.9,30.16,WSW,248,6.0,16.0,67,0.00,,---,0.00,531.00,VWS V14.01,2013-07-05 17:00:00,
2013-07-05 13:26:00,82.2,72.3,30.16,SW,223,6.0,14.0,72,0.00,,---,0.00,214.00,VWS V14.01,2013-07-05 17:26:00,
2013-07-05 13:30:00,82.2,72.3,30.16,SW,223,6.0,14.0,72,0.00,,---,0.00,214.00,VWS V14.01,2013-07-05 17:30:00,
2013-07-05 13:56:00,79.3,73.7,30.15,SSW,203,3.0,11.0,83,0.01,,---,0.01,418.00,VWS V14.01,2013-07-05 17:56:00,
2013-07-05 14:00:00,79.3,73.7,30.15,SSW,203,3.0,11.0,83,0.01,,---,0.01,418.00,VWS V14.01,2013-07-05 18:00:00,
2013-07-05 14:26:00,82.1,73.4,30.15,SW,232,2.0,12.0,75,0.01,,---,0.01,731.00,VWS V14.01,2013-07-05 18:26:00,
2013-07-05 14:30:00,82.1,73.4,30.15,SW,232,2.0,12.0,75,0.01,,---,0.01,731.00,VWS V14.01,2013-07-05 18:30:00,
2013-07-05 14:56:00,83.9,72.2,30.14,WSW,252,4.0,9.0,68,0.01,,---,0.01,232.00,VWS V14.01,2013-07-05 18:56:00,
2013-07-05 15:00:00,83.9,72.2,30.14,WSW,252,4.0,9.0,68,0.01,,---,0.01,232.00,VWS V14.01,2013-07-05 19:00:00,
2013-07-05 15:26:00,81.7,73.0,30.14,SW,233,5.0,11.0,75,0.01,,---,0.02,120.00,VWS V14.01,2013-07-05 19:26:00,
2013-07-05 15:30:00,81.7,73.0,30.14,SW,233,5.0,11.0,75,0.01,,---,0.02,120.00,VWS V14.01,2013-07-05 19:30:00,
2013-07-05 15:56:00,76.4,72.6,30.15,NW,319,3.0,10.0,88,0.04,,---,0.05,137.00,VWS V14.01,2013-07-05 19:56:00,
2013-07-05 16:00:00,76.4,72.6,30.15,NW,319,3.0,10.0,88,0.04,,---,0.05,137.00,VWS V14.01,2013-07-05 20:00:00,
2013-07-05 16:26:00,78.6,73.7,30.13,WSW,255,0.0,5.0,85,0.04,,---,0.05,390.00,VWS V14.01,2013-07-05 20:26:00,
2013-07-05 16:30:00,78.6,73.7,30.13,WSW,255,0.0,5.0,85,0.04,,---,0.05,390.00,VWS V14.01,2013-07-05 20:30:00,
2013-07-05 16:56:00,81.1,74.7,30.12,SSW,209,0.0,3.0,81,0.03,,---,0.05,596.00,VWS V14.01,2013-07-05 20:56:00,
2013-07-05 17:00:00,81.1,74.7,30.12,SSW,209,0.0,3.0,81,0.03,,---,0.05,596.00,VWS V14.01,2013-07-05 21:00:00,
2013-07-05 17:26:00,81.6,73.3,30.11,WSW,255,0.0,4.0,76,0.00,,---,0.05,77.00,VWS V14.01,2013-07-05 21:26:00,
2013-07-05 17:30:00,81.6,73.3,30.11,WSW,255,0.0,4.0,76,0.00,,---,0.05,77.00,VWS V14.01,2013-07-05 21:30:00,
2013-07-05 17:56:00,76.8,73.0,30.12,NNW,335,2.0,13.0,88,0.00,,---,0.05,18.00,VWS V14.01,2013-07-05 21:56:00,
2013-07-05 18:00:00,76.8,73.0,30.12,NNW,335,2.0,13.0,88,0.00,,---,0.05,18.00,VWS V14.01,2013-07-05 22:00:00,
2013-07-05 18:26:00,74.7,71.6,30.13,West,269,0.0,9.0,90,0.07,,---,0.12,25.00,VWS V14.01,2013-07-05 22:26:00,
2013-07-05 18:30:00,74.7,71.6,30.13,West,269,0.0,9.0,90,0.07,,---,0.12,25.00,VWS V14.01,2013-07-05 22:30:00,
2013-07-05 18:56:00,73.4,70.9,30.12,NW,319,0.0,8.0,92,0.32,,---,0.37,44.00,VWS V14.01,2013-07-05 22:56:00,
2013-07-05 19:00:00,73.4,70.9,30.12,NW,319,0.0,8.0,92,0.32,,---,0.37,44.00,VWS V14.01,2013-07-05 23:00:00,
2013-07-05 19:26:00,74.0,71.8,30.12,NW,323,0.0,4.0,93,0.32,,---,0.37,49.00,VWS V14.01,2013-07-05 23:26:00,
2013-07-05 19:30:00,74.0,71.8,30.12,NW,323,0.0,4.0,93,0.32,,---,0.37,49.00,VWS V14.01,2013-07-05 23:30:00,
2013-07-05 19:56:00,74.1,71.9,30.13,NW,323,0.0,1.0,93,0.25,,---,0.37,33.00,VWS V14.01,2013-07-05 23:56:00,
2013-07-05 20:00:00,74.1,71.9,30.13,NW,323,0.0,1.0,93,0.25,,---,0.37,33.00,VWS V14.01,2013-07-06 00:00:00,
2013-07-05 20:26:00,73.9,72.1,30.14,NW,323,0.0,0.0,94,0.00,,---,0.37,19.00,VWS V14.01,2013-07-06 00:26:00,
2013-07-05 20:30:00,73.9,72.1,30.14,NW,323,0.0,0.0,94,0.00,,---,0.37,19.00,VWS V14.01,2013-07-06 00:30:00,
2013-07-05 20:56:00,73.7,72.2,30.13,NW,323,0.0,3.0,95,0.00,,---,0.37,0.00,VWS V14.01,2013-07-06 00:56:00,
2013-07-05 21:00:00,73.7,72.2,30.13,NW,323,0.0,3.0,95,0.00,,---,0.37,0.00,VWS V14.01,2013-07-06 01:00:00,
2013-07-05 21:26:00,73.1,71.3,30.14,NW,320,0.0,4.0,94,0.00,,---,0.37,0.00,VWS V14.01,2013-07-06 01:26:00,
2013-07-05 21:30:00,73.1,71.3,30.14,NW,320,0.0,4.0,94,0.00,,---,0.37,0.00,VWS V14.01,2013-07-06 01:30:00,
2013-07-05 21:56:00,72.9,71.1,30.15,SSW,192,2.0,6.0,94,0.00,,---,0.37,0.00,VWS V14.01,2013-07-06 01:56:00,
2013-07-05 22:00:00,72.9,71.1,30.15,SSW,192,2.0,6.0,94,0.00,,---,0.37,0.00,VWS V14.01,2013-07-06 02:00:00,
2013-07-05 22:26:00,72.4,69.9,30.15,WSW,239,0.0,4.0,92,0.00,,---,0.37,0.00,VWS V14.01,2013-07-06 02:26:00,
2013-07-05 22:30:00,72.4,69.9,30.15,WSW,239,0.0,4.0,92,0.00,,---,0.37,0.00,VWS V14.01,2013-07-06 02:30:00,
2013-07-05 22:56:00,72.0,69.6,30.15,WSW,238,1.0,4.0,92,0.00,,---,0.37,0.00,VWS V14.01,2013-07-06 02:56:00,
2013-07-05 23:00:00,72.0,69.6,30.15,WSW,238,1.0,4.0,92,0.00,,---,0.37,0.00,VWS V14.01,2013-07-06 03:00:00,
2013-07-05 23:26:00,71.6,69.5,30.16,WSW,238,0.0,1.0,93,0.00,,---,0.37,0.00,VWS V14.01,2013-07-06 03:26:00,
2013-07-05 23:30:00,71.6,69.5,30.16,WSW,238,0.0,1.0,93,0.00,,---,0.37,0.00,VWS V14.01,2013-07-06 03:30:00,
2013-07-05 23:56:00,71.5,69.4,30.16,SW,235,2.0,3.0,93,0.00,,---,0.37,0.00,VWS V14.01,2013-07-06 03:56:00,